Time,TemperatureF,DewpointF,PressureIn,WindDirection,WindDirectionDegrees,WindSpeedMPH,WindSpeedGustMPH,Humidity,HourlyPrecipIn,Conditions,Clouds,dailyrainin,SoftwareType,DateUTC
2013-02-16 00:00:00,33.4,31.6,29.98,WSW,248,0.0,0.0,93,0.00,,,0.09,Wunderground v.1.15,2013-02-16 05:00:00,
2013-02-16 00:06:00,33.3,31.8,29.98,WSW,248,0.0,0.0,94,0.00,,,0.00,Wunderground v.1.15,2013-02-16 05:06:00,
2013-02-16 00:10:00,33.2,31.7,29.98,WSW,248,0.0,0.0,94,0.00,,,0.00,Wunderground v.1.15,2013-02-16 05:10:00,
2013-02-16 00:15:00,33.1,31.6,29.98,WSW,248,0.0,0.0,94,0.00,,,0.00,Wunderground v.1.15,2013-02-16 05:15:00,
2013-02-16 00:20:00,33.0,31.5,29.98,WSW,248,0.0,0.0,94,0.00,,,0.00,Wunderground v.1.15,2013-02-16 05:20:00,
2013-02-16 00:25:00,32.8,31.3,29.98,WSW,248,0.0,0.0,94,0.00,,,0.00,Wunderground v.1.15,2013-02-16 05:25:00,
2013-02-16 00:30:00,32.5,30.7,29.97,WSW,248,0.0,0.0,93,0.00,,,0.00,Wunderground v.1.15,2013-02-16 05:30:00,
2013-02-16 00:35:00,32.4,30.9,29.97,WSW,248,0.0,0.0,94,0.00,,,0.00,Wunderground v.1.15,2013-02-16 05:35:00,
2013-02-16 00:40:00,32.3,30.5,29.97,WSW,248,0.0,0.0,93,0.00,,,0.00,Wunderground v.1.15,2013-02-16 05:40:00,
2013-02-16 00:45:00,32.2,30.7,29.97,WSW,248,0.0,0.0,94,0.00,,,0.00,Wunderground v.1.15,2013-02-16 05:45:00,
2013-02-16 00:50:00,32.1,30.6,29.96,WSW,248,0.0,0.0,94,0.00,,,0.00,Wunderground v.1.15,2013-02-16 05:50:00,
2013-02-16 00:55:00,31.9,30.1,29.96,WSW,248,0.0,0.0,93,0.00,,,0.00,Wunderground v.1.15,2013-02-16 05:55:00,
2013-02-16 01:00:00,31.9,30.1,29.96,WSW,248,0.0,0.0,93,0.00,,,0.01,Wunderground v.1.15,2013-02-16 06:00:00,
2013-02-16 01:06:00,31.7,29.9,29.97,WSW,248,0.0,0.0,93,0.00,,,0.01,Wunderground v.1.15,2013-02-16 06:06:00,
2013-02-16 01:15:00,31.5,29.7,29.97,WSW,248,0.0,0.0,93,0.00,,,0.01,Wunderground v.1.15,2013-02-16 06:15:00,
2013-02-16 01:20:00,31.4,29.6,29.97,WSW,248,0.0,0.0,93,0.00,,,0.01,Wunderground v.1.15,2013-02-16 06:20:00,
2013-02-16 01:25:00,31.3,29.8,29.97,WSW,248,0.0,0.0,94,0.00,,,0.01,Wunderground v.1.15,2013-02-16 06:25:00,
2013-02-16 01:30:00,31.2,29.7,29.97,WSW,248,0.0,0.0,94,0.00,,,0.01,Wunderground v.1.15,2013-02-16 06:30:00,
2013-02-16 01:35:00,31.1,29.3,29.97,WSW,248,0.0,0.0,93,0.00,,,0.01,Wunderground v.1.15,2013-02-16 06:35:00,
2013-02-16 01:40:00,31.1,29.6,29.97,WSW,248,0.0,0.0,94,0.00,,,0.01,Wunderground v.1.15,2013-02-16 06:40:00,
2013-02-16 01:45:00,31.0,29.5,29.97,WSW,248,0.0,0.0,94,0.00,,,0.01,Wunderground v.1.15,2013-02-16 06:45:00,
2013-02-16 01:50:00,31.0,29.5,29.96,WSW,248,0.0,0.0,94,0.00,,,0.01,Wunderground v.1.15,2013-02-16 06:50:00,
2013-02-16 01:55:00,30.9,30.9,29.96,WSW,248,0.0,0.0,100,0.00,,,0.01,Wunderground v.1.15,2013-02-16 06:55:00,
2013-02-16 02:00:00,30.9,29.4,29.96,WSW,248,0.0,0.0,94,0.00,,,0.01,Wunderground v.1.15,2013-02-16 07:00:00,
2013-02-16 02:06:00,30.9,29.4,29.96,WSW,248,0.0,0.0,94,0.00,,,0.01,Wunderground v.1.15,2013-02-16 07:06:00,
2013-02-16 02:10:00,30.9,29.4,29.96,WSW,248,0.0,0.0,94,0.00,,,0.01,Wunderground v.1.15,2013-02-16 07:10:00,
2013-02-16 02:15:00,31.0,29.5,29.96,WSW,248,0.0,0.0,94,0.00,,,0.01,Wunderground v.1.15,2013-02-16 07:15:00,
2013-02-16 02:20:00,31.0,29.5,29.95,WSW,248,0.0,0.0,94,0.00,,,0.01,Wunderground v.1.15,2013-02-16 07:20:00,
2013-02-16 02:25:00,31.0,29.5,29.95,WSW,248,0.0,0.0,94,0.00,,,0.01,Wunderground v.1.15,2013-02-16 07:25:00,
2013-02-16 02:30:00,31.0,29.5,29.95,WSW,248,0.0,0.0,94,0.00,,,0.01,Wunderground v.1.15,2013-02-16 07:30:00,
2013-02-16 02:35:00,31.0,29.5,29.95,WSW,248,0.0,0.0,94,0.00,,,0.01,Wunderground v.1.15,2013-02-16 07:35:00,
2013-02-16 02:40:00,31.0,29.5,29.95,WSW,248,0.0,0.0,94,0.00,,,0.01,Wunderground v.1.15,2013-02-16 07:40:00,
2013-02-16 02:45:00,30.9,29.4,29.94,WSW,248,0.0,0.0,94,0.00,,,0.01,Wunderground v.1.15,2013-02-16 07:45:00,
2013-02-16 02:50:00,30.8,29.3,29.94,WSW,248,0.0,0.0,94,0.00,,,0.01,Wunderground v.1.15,2013-02-16 07:50:00,
2013-02-16 02:55:00,30.6,29.1,29.93,WSW,248,0.0,0.0,94,0.00,,,0.01,Wunderground v.1.15,2013-02-16 07:55:00,
2013-02-16 03:00:00,30.5,29.0,29.93,WSW,248,0.0,0.0,94,0.00,,,0.01,Wunderground v.1.15,2013-02-16 08:00:00,
2013-02-16 03:05:00,30.4,28.9,29.93,WSW,248,0.0,0.0,94,0.00,,,0.01,Wunderground v.1.15,2013-02-16 08:05:00,
2013-02-16 03:10:00,30.2,28.7,29.92,WSW,248,0.0,0.0,94,0.00,,,0.01,Wunderground v.1.15,2013-02-16 08:10:00,
2013-02-16 03:15:00,30.1,28.6,29.92,WSW,248,0.0,0.0,94,0.00,,,0.01,Wunderground v.1.15,2013-02-16 08:15:00,
2013-02-16 03:25:00,29.8,28.3,29.92,WSW,248,0.0,0.0,94,0.00,,,0.01,Wunderground v.1.15,2013-02-16 08:25:00,
2013-02-16 03:30:00,29.7,28.2,29.92,WSW,248,0.0,0.0,94,0.00,,,0.01,Wunderground v.1.15,2013-02-16 08:30:00,
2013-02-16 03:35:00,29.6,28.1,29.92,WSW,248,0.0,0.0,94,0.00,,,0.01,Wunderground v.1.15,2013-02-16 08:35:00,
2013-02-16 03:40:00,29.4,27.9,29.92,WSW,248,0.0,0.0,94,0.00,,,0.01,Wunderground v.1.15,2013-02-16 08:40:00,
2013-02-16 03:45:00,29.3,27.8,29.92,WSW,248,0.0,0.0,94,0.00,,,0.01,Wunderground v.1.15,2013-02-16 08:45:00,
2013-02-16 03:55:00,29.2,27.7,29.91,WSW,248,0.0,0.0,94,0.00,,,0.01,Wunderground v.1.15,2013-02-16 08:55:00,
2013-02-16 04:00:00,29.2,27.9,29.91,WSW,248,0.0,0.0,95,0.00,,,0.01,Wunderground v.1.15,2013-02-16 09:00:00,
2013-02-16 04:06:00,29.2,27.9,29.91,WSW,248,0.0,0.0,95,0.00,,,0.01,Wunderground v.1.15,2013-02-16 09:06:00,
2013-02-16 04:15:00,29.2,27.9,29.91,WSW,248,0.0,0.0,95,0.00,,,0.01,Wunderground v.1.15,2013-02-16 09:15:00,
2013-02-16 04:20:00,29.2,27.9,29.91,WSW,248,0.0,0.0,95,0.00,,,0.01,Wunderground v.1.15,2013-02-16 09:20:00,
2013-02-16 04:25:00,29.2,27.9,29.91,WSW,248,0.0,0.0,95,0.00,,,0.01,Wunderground v.1.15,2013-02-16 09:25:00,
2013-02-16 04:35:00,29.0,27.7,29.91,WSW,248,0.0,0.0,95,0.00,,,0.01,Wunderground v.1.15,2013-02-16 09:35:00,
2013-02-16 04:40:00,28.9,27.6,29.91,WSW,248,0.0,0.0,95,0.00,,,0.01,Wunderground v.1.15,2013-02-16 09:40:00,
2013-02-16 04:45:00,28.9,27.6,29.91,WSW,248,0.0,0.0,95,0.00,,,0.01,Wunderground v.1.15,2013-02-16 09:45:00,
2013-02-16 04:50:00,28.8,27.5,29.91,WSW,248,0.0,0.0,95,0.00,,,0.01,Wunderground v.1.15,2013-02-16 09:50:00,
2013-02-16 04:55:00,28.8,27.5,29.91,WSW,248,0.0,0.0,95,0.00,,,0.01,Wunderground v.1.15,2013-02-16 09:55:00,
2013-02-16 05:00:00,28.8,27.5,29.91,WSW,248,0.0,0.0,95,0.00,,,0.01,Wunderground v.1.15,2013-02-16 10:00:00,
2013-02-16 05:05:00,28.8,27.5,29.91,WSW,248,0.0,0.0,95,0.00,,,0.01,Wunderground v.1.15,2013-02-16 10:05:00,
2013-02-16 05:10:00,28.8,27.5,29.91,WSW,248,0.0,0.0,95,0.00,,,0.01,Wunderground v.1.15,2013-02-16 10:10:00,
2013-02-16 05:15:00,28.8,27.5,29.92,WSW,248,0.0,0.0,95,0.00,,,0.01,Wunderground v.1.15,2013-02-16 10:15:00,
2013-02-16 05:20:00,28.7,27.4,29.91,WSW,248,0.0,0.0,95,0.00,,,0.01,Wunderground v.1.15,2013-02-16 10:20:00,
2013-02-16 05:25:00,28.7,27.2,29.91,WSW,248,0.0,0.0,94,0.00,,,0.01,Wunderground v.1.15,2013-02-16 10:25:00,
2013-02-16 05:30:00,28.8,27.3,29.91,WSW,248,0.0,0.0,94,0.00,,,0.01,Wunderground v.1.15,2013-02-16 10:30:00,
2013-02-16 05:35:00,28.8,27.5,29.91,WSW,248,0.0,0.0,95,0.00,,,0.01,Wunderground v.1.15,2013-02-16 10:35:00,
2013-02-16 05:40:00,28.8,27.3,29.91,WSW,248,0.0,0.0,94,0.00,,,0.01,Wunderground v.1.15,2013-02-16 10:40:00,
2013-02-16 05:45:00,28.8,27.3,29.91,WSW,248,0.0,0.0,94,0.00,,,0.01,Wunderground v.1.15,2013-02-16 10:45:00,
2013-02-16 05:50:00,28.8,27.3,29.91,WSW,248,0.0,0.0,94,0.00,,,0.01,Wunderground v.1.15,2013-02-16 10:50:00,
2013-02-16 05:55:00,28.8,27.3,29.91,WSW,248,0.0,0.0,94,0.00,,,0.01,Wunderground v.1.15,2013-02-16 10:55:00,
2013-02-16 06:00:00,28.8,27.3,29.91,WSW,248,0.0,0.0,94,0.00,,,0.01,Wunderground v.1.15,2013-02-16 11:00:00,
2013-02-16 06:06:00,28.7,27.2,29.91,WSW,248,0.0,0.0,94,0.00,,,0.01,Wunderground v.1.15,2013-02-16 11:06:00,
2013-02-16 06:10:00,28.8,27.3,29.91,WSW,248,0.0,0.0,94,0.00,,,0.01,Wunderground v.1.15,2013-02-16 11:10:00,
2013-02-16 06:15:00,28.8,27.3,29.91,WSW,248,0.0,0.0,94,0.00,,,0.01,Wunderground v.1.15,2013-02-16 11:15:00,
2013-02-16 06:20:00,28.7,27.2,29.91,WSW,248,0.0,0.0,94,0.00,,,0.01,Wunderground v.1.15,2013-02-16 11:20:00,
2013-02-16 06:25:00,28.7,27.2,29.91,WSW,248,0.0,0.0,94,0.00,,,0.01,Wunderground v.1.15,2013-02-16 11:25:00,
2013-02-16 06:30:00,28.8,27.3,29.91,WSW,248,0.0,0.0,94,0.00,,,0.01,Wunderground v.1.15,2013-02-16 11:30:00,
2013-02-16 06:35:00,28.8,27.3,29.91,WSW,248,0.0,0.0,94,0.00,,,0.01,Wunderground v.1.15,2013-02-16 11:35:00,
2013-02-16 06:40:00,28.8,27.3,29.91,WSW,248,0.0,0.0,94,0.00,,,0.01,Wunderground v.1.15,2013-02-16 11:40:00,
2013-02-16 06:45:00,28.8,27.3,29.91,WSW,248,0.0,0.0,94,0.00,,,0.01,Wunderground v.1.15,2013-02-16 11:45:00,
2013-02-16 06:50:00,28.8,27.3,29.91,WSW,248,0.0,0.0,94,0.00,,,0.01,Wunderground v.1.15,2013-02-16 11:50:00,
2013-02-16 06:55:00,28.8,27.3,29.91,WSW,248,0.0,0.0,94,0.00,,,0.01,Wunderground v.1.15,2013-02-16 11:55:00,
2013-02-16 07:00:00,28.9,27.4,29.91,WSW,248,0.0,0.0,94,0.00,,,0.01,Wunderground v.1.15,2013-02-16 12:00:00,
2013-02-16 07:06:00,29.0,27.5,29.91,WSW,248,0.0,0.0,94,0.00,,,0.01,Wunderground v.1.15,2013-02-16 12:06:00,
2013-02-16 07:15:00,29.0,27.5,29.91,WSW,252,0.0,0.0,94,0.00,,,0.01,Wunderground v.1.15,2013-02-16 12:15:00,
2013-02-16 07:20:00,29.0,27.5,29.92,WSW,252,0.0,0.0,94,0.00,,,0.01,Wunderground v.1.15,2013-02-16 12:20:00,
2013-02-16 07:25:00,29.0,27.5,29.92,WSW,250,0.0,0.0,94,0.00,,,0.01,Wunderground v.1.15,2013-02-16 12:25:00,
2013-02-16 07:30:00,29.0,27.5,29.92,WSW,250,0.0,0.0,94,0.00,,,0.01,Wunderground v.1.15,2013-02-16 12:30:00,
2013-02-16 07:35:00,28.9,27.4,29.91,WSW,249,0.0,0.0,94,0.00,,,0.01,Wunderground v.1.15,2013-02-16 12:35:00,
2013-02-16 07:40:00,28.8,27.0,29.91,WSW,250,0.0,0.0,93,0.00,,,0.01,Wunderground v.1.15,2013-02-16 12:40:00,
2013-02-16 07:45:00,28.8,27.0,29.91,WSW,250,0.0,0.0,93,0.00,,,0.01,Wunderground v.1.15,2013-02-16 12:45:00,
2013-02-16 07:50:00,28.7,26.9,29.91,WSW,250,0.0,0.0,93,0.00,,,0.01,Wunderground v.1.15,2013-02-16 12:50:00,
2013-02-16 07:55:00,28.7,26.9,29.91,WSW,249,0.0,0.0,93,0.00,,,0.01,Wunderground v.1.15,2013-02-16 12:55:00,
2013-02-16 08:00:00,28.5,26.5,29.92,WSW,249,0.0,0.0,92,0.00,,,0.01,Wunderground v.1.15,2013-02-16 13:00:00,
2013-02-16 08:05:00,28.4,26.4,29.92,WSW,249,0.0,0.0,92,0.00,,,0.01,Wunderground v.1.15,2013-02-16 13:05:00,
2013-02-16 08:10:00,28.5,26.7,29.92,WSW,249,0.0,0.0,93,0.00,,,0.01,Wunderground v.1.15,2013-02-16 13:10:00,
2013-02-16 08:15:00,28.5,26.5,29.92,WSW,249,0.0,0.0,92,0.00,,,0.01,Wunderground v.1.15,2013-02-16 13:15:00,
2013-02-16 08:20:00,28.5,26.5,29.92,WSW,249,0.0,0.0,92,0.00,,,0.01,Wunderground v.1.15,2013-02-16 13:20:00,
2013-02-16 08:30:00,28.5,26.5,29.93,WSW,249,0.0,0.0,92,0.00,,,0.01,Wunderground v.1.15,2013-02-16 13:30:00,
2013-02-16 08:35:00,28.5,26.5,29.92,WSW,249,0.0,0.0,92,0.00,,,0.01,Wunderground v.1.15,2013-02-16 13:35:00,
2013-02-16 08:40:00,28.6,26.6,29.92,WSW,249,0.0,0.0,92,0.00,,,0.01,Wunderground v.1.15,2013-02-16 13:40:00,
2013-02-16 08:45:00,28.7,26.7,29.92,WSW,249,0.0,0.0,92,0.00,,,0.01,Wunderground v.1.15,2013-02-16 13:45:00,
2013-02-16 08:50:00,28.7,26.4,29.92,WSW,249,0.0,0.0,91,0.00,,,0.01,Wunderground v.1.15,2013-02-16 13:50:00,
2013-02-16 08:55:00,28.8,26.5,29.93,WSW,249,0.0,0.0,91,0.00,,,0.01,Wunderground v.1.15,2013-02-16 13:55:00,
2013-02-16 09:00:00,28.9,26.6,29.93,WSW,249,0.0,0.0,91,0.00,,,0.01,Wunderground v.1.15,2013-02-16 14:00:00,
2013-02-16 09:06:00,28.9,26.6,29.93,WSW,249,0.0,0.0,91,0.00,,,0.01,Wunderground v.1.15,2013-02-16 14:06:00,
2013-02-16 09:10:00,29.0,26.4,29.93,WSW,248,0.0,0.0,90,0.00,,,0.01,Wunderground v.1.15,2013-02-16 14:10:00,
2013-02-16 09:15:00,29.1,26.5,29.93,WSW,248,0.0,0.0,90,0.00,,,0.01,Wunderground v.1.15,2013-02-16 14:15:00,
2013-02-16 09:20:00,29.3,26.7,29.93,WSW,248,0.0,0.0,90,0.00,,,0.01,Wunderground v.1.15,2013-02-16 14:20:00,
2013-02-16 09:25:00,29.5,26.9,29.93,WSW,248,0.0,0.0,90,0.00,,,0.01,Wunderground v.1.15,2013-02-16 14:25:00,
2013-02-16 09:30:00,29.6,26.8,29.93,WSW,248,0.0,0.0,89,0.00,,,0.01,Wunderground v.1.15,2013-02-16 14:30:00,
2013-02-16 09:35:00,29.7,26.9,29.93,WSW,248,0.0,0.0,89,0.00,,,0.01,Wunderground v.1.15,2013-02-16 14:35:00,
2013-02-16 09:40:00,29.9,27.1,29.93,WSW,248,0.0,0.0,89,0.00,,,0.01,Wunderground v.1.15,2013-02-16 14:40:00,
2013-02-16 09:45:00,30.0,27.2,29.93,WSW,248,0.0,0.0,89,0.00,,,0.01,Wunderground v.1.15,2013-02-16 14:45:00,
2013-02-16 09:50:00,30.1,27.3,29.93,WSW,248,0.0,0.0,89,0.00,,,0.01,Wunderground v.1.15,2013-02-16 14:50:00,
2013-02-16 09:55:00,30.0,26.6,29.93,WSW,248,0.0,0.0,87,0.00,,,0.01,Wunderground v.1.15,2013-02-16 14:55:00,
2013-02-16 10:05:00,30.3,27.2,29.93,WSW,248,0.0,0.0,88,0.00,,,0.01,Wunderground v.1.15,2013-02-16 15:05:00,
2013-02-16 10:10:00,30.3,26.6,29.93,WSW,248,0.0,0.0,86,0.00,,,0.01,Wunderground v.1.15,2013-02-16 15:10:00,
2013-02-16 10:15:00,30.2,26.5,29.93,WSW,248,0.0,0.0,86,0.00,,,0.01,Wunderground v.1.15,2013-02-16 15:15:00,
2013-02-16 10:20:00,30.2,27.1,29.93,WSW,248,0.0,1.0,88,0.00,,,0.01,Wunderground v.1.15,2013-02-16 15:20:00,
2013-02-16 10:25:00,31.0,28.4,29.93,WSW,248,0.0,1.0,90,0.00,,,0.01,Wunderground v.1.15,2013-02-16 15:25:00,
2013-02-16 10:30:00,31.4,28.3,29.92,WSW,248,0.0,0.0,88,0.00,,,0.01,Wunderground v.1.15,2013-02-16 15:30:00,
2013-02-16 10:35:00,31.9,28.5,29.92,WSW,250,0.0,0.0,87,0.00,,,0.01,Wunderground v.1.15,2013-02-16 15:35:00,
2013-02-16 10:40:00,32.1,28.1,29.92,WSW,252,0.0,0.0,85,0.00,,,0.01,Wunderground v.1.15,2013-02-16 15:40:00,
2013-02-16 10:45:00,32.1,27.8,29.93,WSW,252,0.0,0.0,84,0.00,,,0.01,Wunderground v.1.15,2013-02-16 15:45:00,
2013-02-16 10:50:00,32.0,27.4,29.93,WSW,258,0.0,0.0,83,0.00,,,0.01,Wunderground v.1.15,2013-02-16 15:50:00,
2013-02-16 10:55:00,32.2,27.6,29.93,West,261,1.0,1.0,83,0.00,,,0.01,Wunderground v.1.15,2013-02-16 15:55:00,
2013-02-16 11:00:00,32.3,27.7,29.93,WNW,291,1.0,2.0,83,0.00,,,0.01,Wunderground v.1.15,2013-02-16 16:00:00,
2013-02-16 11:06:00,32.1,26.9,29.93,West,263,1.0,2.0,81,0.00,,,0.01,Wunderground v.1.15,2013-02-16 16:06:00,
2013-02-16 11:10:00,32.3,27.4,29.92,West,279,1.0,1.0,82,0.00,,,0.01,Wunderground v.1.15,2013-02-16 16:10:00,
2013-02-16 11:15:00,32.8,27.9,29.92,WNW,284,0.0,2.0,82,0.00,,,0.01,Wunderground v.1.15,2013-02-16 16:15:00,
2013-02-16 11:20:00,33.4,27.6,29.92,WNW,290,1.0,1.0,79,0.00,,,0.01,Wunderground v.1.15,2013-02-16 16:20:00,
2013-02-16 11:30:00,33.9,27.4,29.92,WNW,296,1.0,1.0,77,0.00,,,0.01,Wunderground v.1.15,2013-02-16 16:30:00,
2013-02-16 11:35:00,34.6,28.1,29.92,WNW,296,1.0,1.0,77,0.00,,,0.01,Wunderground v.1.15,2013-02-16 16:35:00,
2013-02-16 11:40:00,35.2,27.4,29.92,WNW,296,0.0,1.0,73,0.00,,,0.01,Wunderground v.1.15,2013-02-16 16:40:00,
2013-02-16 11:45:00,35.4,28.3,29.92,West,281,1.0,2.0,75,0.00,,,0.01,Wunderground v.1.15,2013-02-16 16:45:00,
2013-02-16 11:50:00,35.6,27.8,29.92,West,273,1.0,2.0,73,0.00,,,0.01,Wunderground v.1.15,2013-02-16 16:50:00,
2013-02-16 11:55:00,35.9,26.0,29.92,NW,313,1.0,3.0,67,0.00,,,0.01,Wunderground v.1.15,2013-02-16 16:55:00,
2013-02-16 12:00:00,35.9,27.7,29.92,West,277,2.0,2.0,72,0.00,,,0.01,Wunderground v.1.15,2013-02-16 17:00:00,
2013-02-16 12:06:00,36.4,27.5,29.92,NW,306,2.0,2.0,70,0.00,,,0.01,Wunderground v.1.15,2013-02-16 17:06:00,
2013-02-16 12:10:00,35.7,25.1,29.92,NW,313,2.0,2.0,65,0.00,,,0.01,Wunderground v.1.15,2013-02-16 17:10:00,
2013-02-16 12:15:00,35.8,25.2,29.92,NW,306,2.0,2.0,65,0.00,,,0.01,Wunderground v.1.15,2013-02-16 17:15:00,
2013-02-16 12:20:00,36.6,24.8,29.91,WNW,301,1.0,2.0,62,0.00,,,0.01,Wunderground v.1.15,2013-02-16 17:20:00,
2013-02-16 12:25:00,37.2,26.5,29.91,NNW,338,2.0,2.0,65,0.00,,,0.01,Wunderground v.1.15,2013-02-16 17:25:00,
2013-02-16 12:30:00,37.5,25.7,29.91,WNW,292,2.0,2.0,62,0.00,,,0.01,Wunderground v.1.15,2013-02-16 17:30:00,
2013-02-16 12:35:00,36.9,23.9,29.91,WNW,287,3.0,3.0,59,0.00,,,0.01,Wunderground v.1.15,2013-02-16 17:35:00,
2013-02-16 12:40:00,36.5,22.3,29.91,West,268,3.0,3.0,56,0.00,,,0.01,Wunderground v.1.15,2013-02-16 17:40:00,
2013-02-16 12:45:00,35.9,22.5,29.91,NW,310,3.0,3.0,58,0.00,,,0.01,Wunderground v.1.15,2013-02-16 17:45:00,
2013-02-16 12:50:00,35.9,23.4,29.91,West,276,3.0,5.0,60,0.00,,,0.01,Wunderground v.1.15,2013-02-16 17:50:00,
2013-02-16 12:55:00,35.9,23.4,29.91,West,281,2.0,5.0,60,0.00,,,0.01,Wunderground v.1.15,2013-02-16 17:55:00,
2013-02-16 13:00:00,35.0,21.3,29.91,WNW,288,2.0,2.0,57,0.00,,,0.01,Wunderground v.1.15,2013-02-16 18:00:00,
2013-02-16 13:06:00,34.8,22.3,29.91,NW,307,2.0,2.0,60,0.00,,,0.01,Wunderground v.1.15,2013-02-16 18:06:00,
2013-02-16 13:10:00,34.6,21.7,29.90,West,280,2.0,2.0,59,0.00,,,0.01,Wunderground v.1.15,2013-02-16 18:10:00,
2013-02-16 13:15:00,34.3,22.2,29.91,WNW,293,2.0,3.0,61,0.00,,,0.01,Wunderground v.1.15,2013-02-16 18:15:00,
2013-02-16 13:20:00,34.2,20.9,29.90,WNW,290,2.0,2.0,58,0.00,,,0.01,Wunderground v.1.15,2013-02-16 18:20:00,
2013-02-16 13:25:00,34.1,21.3,29.90,NNW,339,2.0,2.0,59,0.00,,,0.01,Wunderground v.1.15,2013-02-16 18:25:00,
2013-02-16 13:30:00,34.4,23.1,29.90,NNE,29,1.0,1.0,63,0.00,,,0.01,Wunderground v.1.15,2013-02-16 18:30:00,
2013-02-16 13:35:00,35.6,23.5,29.91,West,277,1.0,1.0,61,0.00,,,0.01,Wunderground v.1.15,2013-02-16 18:35:00,
2013-02-16 13:40:00,35.9,22.5,29.90,WNW,290,2.0,2.0,58,0.00,,,0.01,Wunderground v.1.15,2013-02-16 18:40:00,
2013-02-16 13:45:00,36.1,22.7,29.90,WNW,303,2.0,2.0,58,0.00,,,0.01,Wunderground v.1.15,2013-02-16 18:45:00,
2013-02-16 13:55:00,36.9,21.8,29.90,NNW,331,2.0,2.0,54,0.00,,,0.01,Wunderground v.1.15,2013-02-16 18:55:00,
2013-02-16 14:00:00,37.7,23.0,29.90,NW,310,2.0,2.0,55,0.00,,,0.01,Wunderground v.1.15,2013-02-16 19:00:00,
2013-02-16 14:06:00,37.2,20.2,29.90,West,275,2.0,2.0,50,0.00,,,0.01,Wunderground v.1.15,2013-02-16 19:06:00,
2013-02-16 14:10:00,36.6,20.6,29.90,NW,307,1.0,1.0,52,0.00,,,0.01,Wunderground v.1.15,2013-02-16 19:10:00,
2013-02-16 14:15:00,36.0,20.5,29.90,NW,308,1.0,4.0,53,0.00,,,0.01,Wunderground v.1.15,2013-02-16 19:15:00,
2013-02-16 14:20:00,36.6,19.7,29.91,West,277,2.0,2.0,50,0.00,,,0.01,Wunderground v.1.15,2013-02-16 19:20:00,
2013-02-16 14:25:00,36.0,17.2,29.91,WNW,285,2.0,2.0,46,0.00,,,0.01,Wunderground v.1.15,2013-02-16 19:25:00,
2013-02-16 14:35:00,34.1,17.8,29.90,WNW,296,3.0,4.0,51,0.00,,,0.01,Wunderground v.1.15,2013-02-16 19:35:00,
2013-02-16 14:40:00,33.9,17.7,29.90,NW,314,2.0,2.0,51,0.00,,,0.01,Wunderground v.1.15,2013-02-16 19:40:00,
2013-02-16 14:45:00,34.1,19.2,29.90,WNW,302,1.0,3.0,54,0.00,,,0.01,Wunderground v.1.15,2013-02-16 19:45:00,
2013-02-16 14:50:00,33.6,15.5,29.90,WNW,296,2.0,4.0,47,0.00,,,0.01,Wunderground v.1.15,2013-02-16 19:50:00,
2013-02-16 14:55:00,32.6,16.0,29.91,NW,306,2.0,4.0,50,0.00,,,0.01,Wunderground v.1.15,2013-02-16 19:55:00,
2013-02-16 15:00:00,32.4,15.8,29.91,NW,307,2.0,2.0,50,0.00,,,0.01,Wunderground v.1.15,2013-02-16 20:00:00,
2013-02-16 15:05:00,34.0,18.6,29.91,NW,315,2.0,2.0,53,0.00,,,0.01,Wunderground v.1.15,2013-02-16 20:05:00,
2013-02-16 15:10:00,34.4,16.7,29.91,NNW,327,2.0,4.0,48,0.00,,,0.01,Wunderground v.1.15,2013-02-16 20:10:00,
2013-02-16 15:15:00,34.1,15.9,29.91,NW,319,2.0,5.0,47,0.00,,,0.01,Wunderground v.1.15,2013-02-16 20:15:00,
2013-02-16 15:20:00,33.2,15.6,29.91,NW,309,2.0,2.0,48,0.00,,,0.01,Wunderground v.1.15,2013-02-16 20:20:00,
2013-02-16 15:25:00,32.6,16.9,29.92,WNW,285,2.0,2.0,52,0.00,,,0.01,Wunderground v.1.15,2013-02-16 20:25:00,
2013-02-16 15:30:00,32.9,17.2,29.92,West,263,2.0,2.0,52,0.00,,,0.01,Wunderground v.1.15,2013-02-16 20:30:00,
2013-02-16 15:35:00,34.3,18.0,29.92,West,280,2.0,2.0,51,0.00,,,0.01,Wunderground v.1.15,2013-02-16 20:35:00,
2013-02-16 15:40:00,35.4,20.4,29.92,WNW,286,1.0,1.0,54,0.00,,,0.01,Wunderground v.1.15,2013-02-16 20:40:00,
2013-02-16 15:45:00,36.0,18.7,29.92,WNW,298,1.0,1.0,49,0.00,,,0.01,Wunderground v.1.15,2013-02-16 20:45:00,
2013-02-16 15:50:00,35.1,17.8,29.92,WNW,291,1.0,1.0,49,0.00,,,0.01,Wunderground v.1.15,2013-02-16 20:50:00,
2013-02-16 15:55:00,34.1,19.2,29.92,NW,305,2.0,3.0,54,0.00,,,0.01,Wunderground v.1.15,2013-02-16 20:55:00,
2013-02-16 16:00:00,33.7,17.9,29.92,NW,305,1.0,1.0,52,0.00,,,0.01,Wunderground v.1.15,2013-02-16 21:00:00,
2013-02-16 16:05:00,33.9,18.1,29.93,WNW,292,1.0,1.0,52,0.00,,,0.01,Wunderground v.1.15,2013-02-16 21:05:00,
2013-02-16 16:10:00,33.1,17.4,29.93,NW,311,2.0,3.0,52,0.00,,,0.01,Wunderground v.1.15,2013-02-16 21:10:00,
2013-02-16 16:15:00,32.2,18.2,29.93,WSW,249,2.0,3.0,56,0.00,,,0.01,Wunderground v.1.15,2013-02-16 21:15:00,
2013-02-16 16:20:00,32.5,17.7,29.93,WNW,303,2.0,2.0,54,0.00,,,0.01,Wunderground v.1.15,2013-02-16 21:20:00,
2013-02-16 16:25:00,32.6,17.8,29.94,WNW,298,1.0,2.0,54,0.00,,,0.01,Wunderground v.1.15,2013-02-16 21:25:00,
2013-02-16 16:30:00,31.3,20.9,29.95,NW,304,2.0,2.0,65,0.00,,,0.01,Wunderground v.1.15,2013-02-16 21:30:00,
2013-02-16 16:35:00,29.8,21.5,29.95,West,275,2.0,2.0,71,0.00,,,0.01,Wunderground v.1.15,2013-02-16 21:35:00,
2013-02-16 16:40:00,29.1,21.2,29.95,WNW,299,1.0,2.0,72,0.00,,,0.01,Wunderground v.1.15,2013-02-16 21:40:00,
2013-02-16 16:45:00,29.2,20.3,29.95,WNW,301,1.0,2.0,69,0.00,,,0.01,Wunderground v.1.15,2013-02-16 21:45:00,
2013-02-16 16:50:00,29.1,19.5,29.95,WNW,301,1.0,1.0,67,0.00,,,0.01,Wunderground v.1.15,2013-02-16 21:50:00,
2013-02-16 16:55:00,28.8,20.2,29.95,NW,306,1.0,1.0,70,0.00,,,0.01,Wunderground v.1.15,2013-02-16 21:55:00,
2013-02-16 17:00:00,28.7,18.4,29.95,WNW,298,1.0,1.0,65,0.00,,,0.01,Wunderground v.1.15,2013-02-16 22:00:00,
2013-02-16 17:06:00,28.4,17.4,29.95,WNW,298,1.0,1.0,63,0.00,,,0.01,Wunderground v.1.15,2013-02-16 22:06:00,
2013-02-16 17:10:00,28.2,17.6,29.95,WNW,302,1.0,4.0,64,0.00,,,0.01,Wunderground v.1.15,2013-02-16 22:10:00,
2013-02-16 17:15:00,28.0,16.6,29.95,East,86,2.0,4.0,62,0.00,,,0.01,Wunderground v.1.15,2013-02-16 22:15:00,
2013-02-16 17:25:00,27.8,16.1,29.96,NW,316,2.0,3.0,61,0.00,,,0.01,Wunderground v.1.15,2013-02-16 22:25:00,
2013-02-16 17:30:00,27.7,15.2,29.97,West,272,2.0,2.0,59,0.00,,,0.01,Wunderground v.1.15,2013-02-16 22:30:00,
2013-02-16 17:35:00,27.5,16.2,29.97,NW,304,2.0,3.0,62,0.00,,,0.01,Wunderground v.1.15,2013-02-16 22:35:00,
2013-02-16 17:40:00,27.4,15.7,29.97,WNW,296,1.0,1.0,61,0.00,,,0.01,Wunderground v.1.15,2013-02-16 22:40:00,
2013-02-16 17:45:00,27.2,16.3,29.98,WNW,298,1.0,1.0,63,0.00,,,0.01,Wunderground v.1.15,2013-02-16 22:45:00,
2013-02-16 17:50:00,27.0,16.4,29.98,NW,315,1.0,2.0,64,0.00,,,0.01,Wunderground v.1.15,2013-02-16 22:50:00,
2013-02-16 17:55:00,26.9,16.7,29.98,WNW,295,2.0,3.0,65,0.00,,,0.01,Wunderground v.1.15,2013-02-16 22:55:00,
2013-02-16 18:00:00,26.9,17.0,29.97,WNW,292,2.0,2.0,66,0.00,,,0.01,Wunderground v.1.15,2013-02-16 23:00:00,
2013-02-16 18:06:00,26.8,17.6,29.98,WNW,302,2.0,2.0,68,0.00,,,0.01,Wunderground v.1.15,2013-02-16 23:06:00,
2013-02-16 18:10:00,26.5,17.4,29.98,NW,309,1.0,4.0,68,0.00,,,0.01,Wunderground v.1.15,2013-02-16 23:10:00,
2013-02-16 18:15:00,26.3,17.5,29.98,West,276,1.0,4.0,69,0.00,,,0.01,Wunderground v.1.15,2013-02-16 23:15:00,
2013-02-16 18:20:00,26.2,17.7,29.99,WNW,296,1.0,1.0,70,0.00,,,0.01,Wunderground v.1.15,2013-02-16 23:20:00,
2013-02-16 18:25:00,26.0,18.8,29.99,WNW,286,1.0,1.0,74,0.00,,,0.01,Wunderground v.1.15,2013-02-16 23:25:00,
2013-02-16 18:30:00,25.7,19.5,30.00,WNW,285,1.0,1.0,77,0.00,,,0.01,Wunderground v.1.15,2013-02-16 23:30:00,
2013-02-16 18:35:00,25.4,19.2,30.00,WNW,285,1.0,1.0,77,0.00,,,0.01,Wunderground v.1.15,2013-02-16 23:35:00,
2013-02-16 18:40:00,25.1,19.2,30.01,WNW,282,1.0,1.0,78,0.00,,,0.01,Wunderground v.1.15,2013-02-16 23:40:00,
2013-02-16 18:45:00,24.8,18.6,30.00,West,281,0.0,1.0,77,0.00,,,0.01,Wunderground v.1.15,2013-02-16 23:45:00,
2013-02-16 18:50:00,24.6,18.7,30.01,WNW,282,0.0,0.0,78,0.00,,,0.01,Wunderground v.1.15,2013-02-16 23:50:00,
2013-02-16 19:00:00,24.4,18.5,30.01,WNW,282,0.0,0.0,78,0.00,,,0.01,Wunderground v.1.15,2013-02-17 00:00:00,
2013-02-16 19:06:00,24.4,17.6,30.01,WNW,282,0.0,0.0,75,0.00,,,0.01,Wunderground v.1.15,2013-02-17 00:06:00,
2013-02-16 19:10:00,24.4,17.6,30.01,WNW,282,0.0,0.0,75,0.00,,,0.01,Wunderground v.1.15,2013-02-17 00:10:00,
2013-02-16 19:15:00,24.4,17.6,30.01,WNW,282,0.0,0.0,75,0.00,,,0.01,Wunderground v.1.15,2013-02-17 00:15:00,
2013-02-16 19:20:00,24.5,17.4,30.01,WNW,282,0.0,0.0,74,0.00,,,0.01,Wunderground v.1.15,2013-02-17 00:20:00,
2013-02-16 19:25:00,24.5,17.1,30.01,WNW,296,0.0,0.0,73,0.00,,,0.01,Wunderground v.1.15,2013-02-17 00:25:00,
2013-02-16 19:30:00,24.7,17.3,30.02,WNW,291,1.0,1.0,73,0.00,,,0.01,Wunderground v.1.15,2013-02-17 00:30:00,
2013-02-16 19:40:00,24.9,17.8,30.03,WNW,283,1.0,1.0,74,0.00,,,0.01,Wunderground v.1.15,2013-02-17 00:40:00,
2013-02-16 19:45:00,24.8,18.0,30.03,West,280,1.0,1.0,75,0.00,,,0.01,Wunderground v.1.15,2013-02-17 00:45:00,
2013-02-16 19:50:00,24.6,17.5,30.02,West,275,1.0,3.0,74,0.00,,,0.01,Wunderground v.1.15,2013-02-17 00:50:00,
2013-02-16 19:55:00,24.5,17.4,30.03,West,265,1.0,3.0,74,0.00,,,0.01,Wunderground v.1.15,2013-02-17 00:55:00,
2013-02-16 20:00:00,24.4,17.3,30.03,WNW,282,0.0,2.0,74,0.00,,,0.01,Wunderground v.1.15,2013-02-17 01:00:00,
2013-02-16 20:05:00,24.3,17.2,30.03,West,277,1.0,2.0,74,0.00,,,0.01,Wunderground v.1.15,2013-02-17 01:05:00,
2013-02-16 20:10:00,24.3,17.2,30.03,West,277,1.0,1.0,74,0.00,,,0.01,Wunderground v.1.15,2013-02-17 01:10:00,
2013-02-16 20:15:00,24.3,16.6,30.03,WNW,300,1.0,1.0,72,0.00,,,0.01,Wunderground v.1.15,2013-02-17 01:15:00,
2013-02-16 20:20:00,24.3,16.9,30.04,West,275,1.0,2.0,73,0.00,,,0.01,Wunderground v.1.15,2013-02-17 01:20:00,
2013-02-16 20:25:00,24.3,16.6,30.04,WNW,293,1.0,2.0,72,0.00,,,0.01,Wunderground v.1.15,2013-02-17 01:25:00,
2013-02-16 20:30:00,24.2,16.1,30.03,WNW,294,2.0,2.0,71,0.00,,,0.01,Wunderground v.1.15,2013-02-17 01:30:00,
2013-02-16 20:35:00,24.2,16.1,30.04,WNW,302,2.0,2.0,71,0.00,,,0.01,Wunderground v.1.15,2013-02-17 01:35:00,
2013-02-16 20:40:00,24.1,16.1,30.03,WNW,301,1.0,1.0,71,0.00,,,0.01,Wunderground v.1.15,2013-02-17 01:40:00,
2013-02-16 20:45:00,24.0,15.6,30.03,WNW,302,1.0,2.0,70,0.00,,,0.01,Wunderground v.1.15,2013-02-17 01:45:00,
2013-02-16 20:50:00,24.0,15.6,30.04,WNW,302,1.0,1.0,70,0.00,,,0.01,Wunderground v.1.15,2013-02-17 01:50:00,
2013-02-16 20:55:00,23.9,15.5,30.04,NW,313,1.0,1.0,70,0.00,,,0.01,Wunderground v.1.15,2013-02-17 01:55:00,
2013-02-16 21:00:00,23.9,15.2,30.04,WNW,282,1.0,1.0,69,0.00,,,0.01,Wunderground v.1.15,2013-02-17 02:00:00,
2013-02-16 21:06:00,23.9,14.9,30.04,NW,325,1.0,1.0,68,0.00,,,0.01,Wunderground v.1.15,2013-02-17 02:06:00,
2013-02-16 21:10:00,23.8,15.1,30.05,NW,325,1.0,2.0,69,0.00,,,0.01,Wunderground v.1.15,2013-02-17 02:10:00,
2013-02-16 21:15:00,23.8,15.4,30.05,NW,323,0.0,2.0,70,0.00,,,0.01,Wunderground v.1.15,2013-02-17 02:15:00,
2013-02-16 21:20:00,23.8,15.8,30.05,NW,324,0.0,0.0,71,0.00,,,0.01,Wunderground v.1.15,2013-02-17 02:20:00,
2013-02-16 21:25:00,23.8,15.4,30.06,NW,323,0.0,0.0,70,0.00,,,0.01,Wunderground v.1.15,2013-02-17 02:25:00,
2013-02-16 21:35:00,23.8,15.4,30.06,NW,320,1.0,1.0,70,0.00,,,0.01,Wunderground v.1.15,2013-02-17 02:35:00,
2013-02-16 21:40:00,23.7,15.0,30.06,NW,319,0.0,0.0,69,0.00,,,0.01,Wunderground v.1.15,2013-02-17 02:40:00,
2013-02-16 21:45:00,23.6,14.9,30.06,NW,320,0.0,0.0,69,0.00,,,0.01,Wunderground v.1.15,2013-02-17 02:45:00,
2013-02-16 21:50:00,23.5,15.1,30.06,NW,320,0.0,0.0,70,0.00,,,0.01,Wunderground v.1.15,2013-02-17 02:50:00,
2013-02-16 21:55:00,23.5,15.5,30.06,NW,320,0.0,0.0,71,0.00,,,0.01,Wunderground v.1.15,2013-02-17 02:55:00,
2013-02-16 22:00:00,23.4,15.1,30.06,WNW,298,1.0,1.0,70,0.00,,,0.01,Wunderground v.1.15,2013-02-17 03:00:00,
2013-02-16 22:06:00,23.3,15.3,30.07,WNW,298,1.0,1.0,71,0.00,,,0.01,Wunderground v.1.15,2013-02-17 03:06:00,
2013-02-16 22:10:00,23.2,15.5,30.07,WNW,298,0.0,0.0,72,0.00,,,0.01,Wunderground v.1.15,2013-02-17 03:10:00,
2013-02-16 22:15:00,23.1,15.4,30.07,WNW,298,0.0,1.0,72,0.00,,,0.01,Wunderground v.1.15,2013-02-17 03:15:00,
2013-02-16 22:20:00,23.0,15.0,30.07,WNW,298,0.0,2.0,71,0.00,,,0.01,Wunderground v.1.15,2013-02-17 03:20:00,
2013-02-16 22:25:00,22.9,14.9,30.07,WNW,298,0.0,2.0,71,0.00,,,0.01,Wunderground v.1.15,2013-02-17 03:25:00,
2013-02-16 22:30:00,22.8,14.8,30.08,WNW,298,0.0,0.0,71,0.00,,,0.01,Wunderground v.1.15,2013-02-17 03:30:00,
2013-02-16 22:40:00,22.7,14.7,30.07,WNW,290,1.0,1.0,71,0.00,,,0.01,Wunderground v.1.15,2013-02-17 03:40:00,
2013-02-16 22:45:00,22.6,14.9,30.07,WNW,290,1.0,1.0,72,0.00,,,0.01,Wunderground v.1.15,2013-02-17 03:45:00,
2013-02-16 22:50:00,22.5,14.8,30.07,WNW,290,0.0,0.0,72,0.00,,,0.01,Wunderground v.1.15,2013-02-17 03:50:00,
2013-02-16 22:55:00,22.4,14.4,30.07,WNW,290,0.0,0.0,71,0.00,,,0.01,Wunderground v.1.15,2013-02-17 03:55:00,
2013-02-16 23:00:00,22.3,14.6,30.07,WNW,290,0.0,0.0,72,0.00,,,0.01,Wunderground v.1.15,2013-02-17 04:00:00,
2013-02-16 23:05:00,22.2,14.5,30.08,WNW,290,0.0,0.0,72,0.00,,,0.01,Wunderground v.1.15,2013-02-17 04:05:00,
2013-02-16 23:10:00,22.1,14.4,30.08,WNW,290,0.0,0.0,72,0.00,,,0.01,Wunderground v.1.15,2013-02-17 04:10:00,
2013-02-16 23:15:00,22.1,14.4,30.08,WNW,291,0.0,0.0,72,0.00,,,0.01,Wunderground v.1.15,2013-02-17 04:15:00,
2013-02-16 23:20:00,22.0,14.3,30.07,WNW,290,0.0,1.0,72,0.00,,,0.01,Wunderground v.1.15,2013-02-17 04:20:00,
2013-02-16 23:25:00,22.0,14.0,30.07,WNW,288,0.0,3.0,71,0.00,,,0.01,Wunderground v.1.15,2013-02-17 04:25:00,
2013-02-16 23:30:00,21.9,14.6,30.07,WNW,288,1.0,1.0,73,0.00,,,0.01,Wunderground v.1.15,2013-02-17 04:30:00,
2013-02-16 23:35:00,21.9,14.6,30.07,WNW,289,0.0,1.0,73,0.00,,,0.01,Wunderground v.1.15,2013-02-17 04:35:00,
2013-02-16 23:40:00,21.8,13.8,30.08,WNW,288,0.0,0.0,71,0.00,,,0.01,Wunderground v.1.15,2013-02-17 04:40:00,
2013-02-16 23:50:00,21.6,13.6,30.08,WNW,290,0.0,0.0,71,0.00,,,0.01,Wunderground v.1.15,2013-02-17 04:50:00,
2013-02-16 23:55:00,21.5,13.2,30.08,WNW,290,0.0,0.0,70,0.00,,,0.01,Wunderground v.1.15,2013-02-17 04:55:00,